Time;durP1;ratioP1;P1;durP2;ratioP2;P2;SDS_P1;SDS_P2;PMS_P1;PMS_P2;Temp;Humidity;BMP_temperature;BMP_pressure;BME280_temperature;BME280_humidity;BME280_pressure;Samples;Min_cycle;Max_cycle;Signal;HPM_P1;HPM_P2
2022/04/11 04:18:45;;;;;;;8.43;6.12;;;;;;;1.51;87.41;100887.66;5555838;32;323529;-87
2022/04/11 04:21:49;;;;;;;8.40;6.10;;;;;;;1.54;86.86;100893.75;5545600;32;34085;-87
2022/04/11 04:24:52;;;;;;;7.87;5.32;;;;;;;1.55;86.59;100898.09;5544334;32;33960;-87
2022/04/11 04:27:56;;;;;;;9.55;5.85;;;;;;;1.57;86.54;100909.41;5545264;32;33768;-87
2022/04/11 04:30:59;;;;;;;8.77;6.12;;;;;;;1.58;86.66;100916.41;5545469;32;34164;-88
2022/04/11 04:34:05;;;;;;;9.02;6.00;;;;;;;1.61;86.46;100919.00;5543904;32;34934;-86
2022/04/11 04:37:08;;;;;;;7.30;5.65;;;;;;;1.65;86.52;100914.59;5546271;32;34404;-85
2022/04/11 04:40:12;;;;;;;6.90;5.55;;;;;;;1.77;86.00;100915.44;5545766;32;34449;-89
2022/04/11 04:43:15;;;;;;;7.70;5.43;;;;;;;1.73;86.43;100927.66;5544467;32;34759;-90
2022/04/11 04:46:21;;;;;;;5.97;5.15;;;;;;;1.77;86.24;100928.53;5545440;32;33833;-88
2022/04/11 04:49:24;;;;;;;7.65;5.40;;;;;;;1.80;86.14;100942.44;5542632;32;34060;-87
2022/04/11 04:52:27;;;;;;;9.02;5.57;;;;;;;1.97;85.63;100938.91;5528259;32;34479;-87
2022/04/11 04:55:30;;;;;;;6.82;5.15;;;;;;;1.97;85.58;100937.12;5529281;32;34729;-87
2022/04/11 04:58:33;;;;;;;8.23;5.40;;;;;;;2.12;85.05;100940.56;5538441;32;33939;-87
2022/04/11 05:01:36;;;;;;;11.30;5.30;;;;;;;2.09;84.76;100956.28;5525677;32;33493;-87
2022/04/11 05:04:40;;;;;;;7.10;5.95;;;;;;;2.11;83.96;100944.91;5526599;32;34054;-87
2022/04/11 05:07:43;;;;;;;6.43;5.18;;;;;;;2.12;84.71;100951.87;5526374;32;32601;-87
2022/04/11 05:10:51;;;;;;;9.60;5.60;;;;;;;2.20;84.01;100954.47;5530285;32;32774;-87
2022/04/11 05:13:54;;;;;;;7.55;5.22;;;;;;;2.33;83.59;100960.53;5535447;32;32465;-87
2022/04/11 05:16:59;;;;;;;7.70;5.30;;;;;;;2.38;83.10;100958.75;5530735;32;32620;-87
2022/04/11 05:20:04;;;;;;;8.80;5.60;;;;;;;2.48;82.48;100958.66;5540281;32;32614;-87
2022/04/11 05:23:08;;;;;;;7.35;5.20;;;;;;;2.81;80.78;100968.03;5534107;32;33378;-87
2022/04/11 05:26:11;;;;;;;8.70;5.75;;;;;;;3.64;77.20;100962.00;5533283;32;33828;-87
2022/04/11 05:29:14;;;;;;;8.95;5.72;;;;;;;4.38;73.86;100951.44;5542857;32;33604;-87
2022/04/11 05:32:16;;;;;;;8.90;5.60;;;;;;;4.40;72.93;100955.78;5534339;32;33515;-88
2022/04/11 05:35:19;;;;;;;6.20;5.47;;;;;;;4.81;70.81;100950.75;5524851;32;33751;-88
2022/04/11 05:38:22;;;;;;;6.72;5.30;;;;;;;5.09;69.60;100959.94;5523860;32;33983;-87
2022/04/11 05:41:26;;;;;;;9.10;5.72;;;;;;;5.11;69.34;100951.13;5523635;32;32730;-89
2022/04/11 05:44:32;;;;;;;6.25;5.10;;;;;;;6.01;66.44;100955.53;5536758;32;35049;-87
2022/04/11 05:47:35;;;;;;;6.18;4.57;;;;;;;6.42;64.13;100947.66;5527632;32;33928;-88
2022/04/11 05:50:38;;;;;;;6.45;4.80;;;;;;;7.33;60.82;100948.94;5522771;32;35527;-88
2022/04/11 05:53:41;;;;;;;8.40;4.60;;;;;;;8.12;56.94;100945.81;5539861;32;32274;-88
2022/04/11 05:56:44;;;;;;;8.10;5.05;;;;;;;8.85;54.91;100949.72;5532281;32;35318;-88
2022/04/11 05:59:54;;;;;;;7.40;5.00;;;;;;;9.10;54.31;100961.28;5527610;32;32327;-87
2022/04/11 06:02:58;;;;;;;5.15;4.55;;;;;;;8.84;53.58;100960.34;5530867;32;32750;-89
2022/04/11 06:06:01;;;;;;;5.25;4.45;;;;;;;9.36;52.34;100955.03;5524497;32;32962;-88
2022/04/11 06:09:05;;;;;;;5.03;4.50;;;;;;;10.74;48.76;100946.34;5518686;32;34346;-86
2022/04/11 06:12:10;;;;;;;6.12;4.62;;;;;;;11.14;47.14;100949.13;5530960;32;35479;-86
2022/04/11 06:15:17;;;;;;;5.78;4.37;;;;;;;11.80;45.06;100949.78;5532977;32;32871;-85
2022/04/11 06:18:21;;;;;;;5.72;4.22;;;;;;;13.02;42.33;100946.69;5522604;32;32904;-86
2022/04/11 06:21:24;;;;;;;6.07;4.43;;;;;;;14.05;39.22;100950.19;5518423;32;33340;-84
2022/04/11 06:24:27;;;;;;;4.93;4.35;;;;;;;13.92;40.47;100941.16;5519182;32;32906;-86
2022/04/11 06:27:32;;;;;;;4.95;3.92;;;;;;;13.95;38.98;100943.62;5517646;32;34573;-86
2022/04/11 06:30:35;;;;;;;6.65;4.78;;;;;;;13.45;40.05;100951.59;5521380;32;33030;-86
2022/04/11 06:33:38;;;;;;;6.10;4.68;;;;;;;13.98;39.51;100940.81;5525084;32;33860;-87
2022/04/11 06:36:41;;;;;;;6.55;4.47;;;;;;;14.89;38.23;100939.28;5518632;32;34369;-85
2022/04/11 06:39:45;;;;;;;6.70;3.90;;;;;;;16.20;35.13;100937.56;5529272;32;34028;-86
2022/04/11 06:42:48;;;;;;;5.32;4.20;;;;;;;16.52;34.66;100936.41;5531073;32;34786;-90
2022/04/11 06:46:00;;;;;;;7.22;4.18;;;;;;;16.91;34.26;100933.84;5513689;32;32398;-87
2022/04/11 06:49:08;;;;;;;4.45;4.03;;;;;;;17.78;31.83;100934.12;5514798;32;33126;-87
2022/04/11 06:52:10;;;;;;;7.12;4.50;;;;;;;17.65;31.56;100931.44;5532747;32;33801;-89
2022/04/11 06:55:13;;;;;;;4.97;4.07;;;;;;;15.95;34.64;100930.25;5531431;32;33781;-88
2022/04/11 06:58:17;;;;;;;5.68;4.40;;;;;;;14.01;37.40;100944.16;5530834;32;33914;-88
2022/04/11 07:01:20;;;;;;;5.30;3.87;;;;;;;16.70;34.38;100943.22;5530430;32;33844;-89
2022/04/11 07:04:25;;;;;;;7.68;4.20;;;;;;;16.44;34.63;100944.94;5530349;32;32746;-88
2022/04/11 07:07:29;;;;;;;5.97;4.32;;;;;;;14.81;36.51;100945.97;5530776;32;32158;-87
2022/04/11 07:10:32;;;;;;;6.45;4.20;;;;;;;16.07;34.38;100948.19;5530881;32;33938;-84
2022/04/11 07:13:36;;;;;;;5.80;4.35;;;;;;;14.50;36.65;100950.38;5533010;32;32830;-86
2022/04/11 07:16:39;;;;;;;7.60;3.90;;;;;;;16.17;34.65;100943.97;5538605;32;34002;-84
2022/04/11 07:19:42;;;;;;;4.62;4.05;;;;;;;17.46;33.35;100947.12;5551768;32;34492;-86
2022/04/11 07:22:44;;;;;;;4.78;3.60;;;;;;;19.36;29.21;100946.78;5539317;32;32482;-85
2022/04/11 07:25:48;;;;;;;5.75;3.87;;;;;;;18.70;29.74;100948.13;5552644;32;33648;-86
2022/04/11 07:28:55;;;;;;;6.03;3.65;;;;;;;18.76;29.29;100941.44;5552094;32;34138;-85
2022/04/11 07:31:58;;;;;;;6.20;4.15;;;;;;;19.71;29.01;100942.28;5552151;32;34376;-86
2022/04/11 07:35:04;;;;;;;5.55;3.70;;;;;;;18.11;29.67;100936.34;5540049;32;33537;-86
2022/04/11 07:38:13;;;;;;;4.43;3.95;;;;;;;19.33;29.08;100936.25;5540918;32;33309;-85
2022/04/11 07:41:23;;;;;;;4.45;3.60;;;;;;;19.20;27.89;100939.88;5554399;32;34131;-86
2022/04/11 07:44:27;;;;;;;4.90;4.00;;;;;;;20.73;25.68;100943.94;5555367;32;34134;-88
2022/04/11 07:47:29;;;;;;;4.87;4.20;;;;;;;19.67;27.46;100936.28;5550067;32;34646;-88
2022/04/11 07:50:32;;;;;;;4.22;3.83;;;;;;;20.64;26.02;100936.59;5555589;32;34743;-88
2022/04/11 07:53:37;;;;;;;4.78;3.80;;;;;;;21.50;25.42;100931.13;5536957;32;33366;-88
2022/04/11 07:56:40;;;;;;;6.30;3.80;;;;;;;22.78;23.83;100933.28;5536412;32;32616;-88
2022/04/11 07:59:45;;;;;;;5.78;4.25;;;;;;;23.05;23.24;100929.00;5550578;32;33865;-88
2022/04/11 08:02:56;;;;;;;4.93;4.10;;;;;;;20.15;26.27;100931.59;5536295;32;32734;-87
2022/04/11 08:05:59;;;;;;;7.87;4.68;;;;;;;18.70;28.32;100934.69;5536179;32;33397;-86
2022/04/11 08:09:03;;;;;;;6.37;4.28;;;;;;;16.75;31.01;100934.88;5530181;32;32705;-86
2022/04/11 08:12:06;;;;;;;6.03;4.45;;;;;;;14.69;34.65;100925.28;5543884;32;33646;-86
2022/04/11 08:15:09;;;;;;;6.40;4.75;;;;;;;16.08;33.60;100928.50;5531669;32;33041;-87
2022/04/11 08:18:12;;;;;;;5.53;4.20;;;;;;;15.73;33.60;100936.91;5545510;32;35276;-87
2022/04/11 08:21:15;;;;;;;5.10;3.87;;;;;;;15.01;36.59;100929.69;5542076;32;34819;-87
2022/04/11 08:24:17;;;;;;;5.00;4.55;;;;;;;16.48;32.34;100925.03;5524027;32;33791;-87
2022/04/11 08:27:20;;;;;;;5.50;4.10;;;;;;;15.94;32.90;100931.22;5535429;32;33889;-85
2022/04/11 08:30:23;;;;;;;5.28;4.07;;;;;;;14.95;35.58;100934.44;5538104;32;32577;-90
2022/04/11 08:33:26;;;;;;;6.75;4.18;;;;;;;15.76;34.47;100932.22;5524978;32;33520;-89
2022/04/11 08:36:29;;;;;;;3.92;3.62;;;;;;;16.35;32.17;100924.13;5523629;32;32737;-91
2022/04/11 08:39:32;;;;;;;5.00;4.50;;;;;;;15.00;35.80;100930.62;5526762;32;32697;-91
2022/04/11 08:42:35;;;;;;;5.68;4.30;;;;;;;15.13;33.64;100926.28;5534857;32;33275;-88
2022/04/11 08:45:44;;;;;;;5.22;3.72;;;;;;;15.31;33.51;100921.63;5543049;32;32355;-87
2022/04/11 08:48:48;;;;;;;7.62;4.00;;;;;;;15.91;32.29;100924.22;5554652;32;32683;-87
2022/04/11 08:51:51;;;;;;;5.10;4.18;;;;;;;16.75;32.99;100913.44;5528092;32;33594;-87
2022/04/11 08:54:54;;;;;;;5.65;4.07;;;;;;;14.93;33.43;100928.31;5522711;32;32192;-86
2022/04/11 08:58:05;;;;;;;4.82;3.40;;;;;;;14.45;34.78;100923.06;5532682;32;35008;-87
2022/04/11 09:01:08;;;;;;;7.30;4.03;;;;;;;15.90;32.88;100917.97;5541252;32;34237;-87
2022/04/11 09:04:11;;;;;;;5.20;3.53;;;;;;;16.29;32.52;100930.72;5538867;32;33921;-87
2022/04/11 09:07:14;;;;;;;5.35;2.75;;;;;;;15.80;32.95;100924.03;5533224;32;33974;-88
2022/04/11 09:10:19;;;;;;;4.15;2.80;;;;;;;16.39;31.08;100933.69;5528483;32;32701;-87
2022/04/11 09:13:22;;;;;;;4.45;3.05;;;;;;;16.53;31.00;100935.44;5525013;32;33498;-87
2022/04/11 09:16:29;;;;;;;6.05;3.55;;;;;;;16.62;32.96;100928.63;5550845;32;33427;-85
2022/04/11 09:19:32;;;;;;;5.72;3.60;;;;;;;17.64;29.69;100927.06;5539758;32;32469;-85
2022/04/11 09:22:57;;;;;;;6.12;3.47;;;;;;;16.59;30.56;100931.53;5526377;32;32917;-88
2022/04/11 09:26:14;;;;;;;5.10;3.75;;;;;;;16.44;33.16;100931.56;5538724;32;32142;-87
2022/04/11 09:29:17;;;;;;;4.00;3.60;;;;;;;17.76;29.05;100932.53;5531063;32;32421;-88
2022/04/11 09:32:20;;;;;;;3.90;3.47;;;;;;;15.71;31.59;100933.47;5540124;32;33928;-88
2022/04/11 09:35:24;;;;;;;4.47;4.07;;;;;;;16.63;31.14;100927.66;5519917;32;32298;-90
2022/04/11 09:38:29;;;;;;;5.93;4.65;;;;;;;15.54;32.53;100929.19;5544097;32;34606;-88
2022/04/11 09:41:34;;;;;;;4.18;3.60;;;;;;;16.52;32.34;100939.09;5521942;32;33508;-88
2022/04/11 09:44:37;;;;;;;4.05;3.65;;;;;;;15.99;32.07;100921.91;5533612;32;34969;-87
2022/04/11 09:48:02;;;;;;;6.62;4.18;;;;;;;15.71;31.66;100922.78;5523103;32;33029;-87
2022/04/11 09:51:10;;;;;;;9.30;4.05;;;;;;;15.90;31.71;100923.34;5537588;32;33042;-91
2022/04/11 09:54:25;;;;;;;3.90;3.58;;;;;;;16.39;31.00;100914.97;5539280;32;32447;-88
2022/04/11 09:57:31;;;;;;;4.12;3.72;;;;;;;16.01;30.71;100913.81;5554091;32;33827;-87
2022/04/11 10:00:37;;;;;;;5.22;3.80;;;;;;;16.62;29.52;100916.09;5539606;32;32606;-88
2022/04/11 10:03:40;;;;;;;7.25;3.72;;;;;;;16.71;32.16;100910.09;5532954;32;32625;-88
2022/04/11 10:06:43;;;;;;;3.50;3.20;;;;;;;18.17;28.00;100914.41;5521026;32;32757;-89
2022/04/11 10:09:46;;;;;;;4.97;3.40;;;;;;;18.74;26.18;100912.00;5522402;32;32698;-88
2022/04/11 10:12:52;;;;;;;5.65;3.90;;;;;;;19.56;25.53;100906.69;5525331;32;33247;-88
2022/04/11 10:15:56;;;;;;;4.78;3.95;;;;;;;20.93;24.84;100904.53;5519138;32;32691;-87
2022/04/11 10:19:01;;;;;;;3.72;3.40;;;;;;;21.35;23.46;100894.69;5534066;32;32951;-84
2022/04/11 10:22:14;;;;;;;5.72;3.75;;;;;;;19.97;24.60;100898.97;5534965;32;34318;-85
2022/04/11 10:25:21;;;;;;;3.60;3.30;;;;;;;19.24;25.65;100897.47;5536475;32;34200;-86
2022/04/11 10:28:27;;;;;;;3.75;3.45;;;;;;;18.40;26.77;100904.63;5546847;32;34664;-85
2022/04/11 10:31:36;;;;;;;3.92;3.62;;;;;;;17.69;28.79;100915.16;5522487;32;33062;-85
2022/04/11 10:34:57;;;;;;;3.85;3.42;;;;;;;18.64;26.35;100901.09;5535979;32;34288;-85
2022/04/11 10:37:59;;;;;;;4.37;3.95;;;;;;;16.50;29.02;100904.38;5539311;32;34103;-85
2022/04/11 10:41:02;;;;;;;5.60;3.85;;;;;;;17.10;28.52;100906.69;5518280;32;32300;-86
2022/04/11 10:44:31;;;;;;;6.57;4.00;;;;;;;16.79;28.71;100901.56;5534675;32;32026;-86
2022/04/11 10:47:34;;;;;;;4.37;3.60;;;;;;;16.53;29.27;100896.16;5544642;32;32545;-86
2022/04/11 10:50:38;;;;;;;3.58;3.22;;;;;;;19.28;25.37;100892.72;5551755;32;34310;-86
2022/04/11 10:54:21;;;;;;;2.92;2.72;;;;;;;22.21;21.37;100880.78;5550552;32;35186;-86
2022/04/11 10:57:50;;;;;;;6.53;3.85;;;;;;;22.13;21.11;100882.47;5535593;32;32964;-85
2022/04/11 11:00:52;;;;;;;3.70;3.30;;;;;;;20.03;25.08;100891.25;5524025;32;33244;-84
2022/04/11 11:04:00;;;;;;;6.95;3.20;;;;;;;18.68;26.17;100885.59;5538509;32;32714;-85
2022/04/11 11:07:24;;;;;;;3.45;3.15;;;;;;;17.55;27.63;100889.31;5539117;32;33302;-85
2022/04/11 11:10:50;;;;;;;4.18;2.92;;;;;;;17.42;26.78;100890.19;5549784;32;34341;-85
2022/04/11 11:13:56;;;;;;;3.62;3.00;;;;;;;17.07;26.89;100899.72;5539164;32;33102;-86
2022/04/11 11:16:59;;;;;;;3.85;3.30;;;;;;;16.00;29.69;100891.53;5550129;32;33016;-84
2022/04/11 11:20:09;;;;;;;3.80;3.17;;;;;;;14.51;30.57;100892.47;5558183;32;34130;-85
2022/04/11 11:23:12;;;;;;;3.90;3.50;;;;;;;13.72;33.37;100895.97;5538504;32;32672;-84
2022/04/11 11:26:17;;;;;;;5.18;3.47;;;;;;;15.04;31.03;100878.75;5543442;32;32148;-84
2022/04/11 11:29:25;;;;;;;4.43;3.60;;;;;;;15.23;31.58;100883.81;5538048;32;32787;-84
2022/04/11 11:32:30;;;;;;;3.28;2.80;;;;;;;14.58;31.81;100883.16;5540498;32;34930;-84
2022/04/11 11:35:33;;;;;;;3.62;3.20;;;;;;;13.27;33.33;100881.50;5547313;32;33627;-83
2022/04/11 11:38:36;;;;;;;5.57;3.80;;;;;;;13.84;33.89;100877.56;5544507;32;33952;-84
2022/04/11 11:41:42;;;;;;;5.53;3.60;;;;;;;13.91;33.26;100878.06;5521075;32;32625;-84
2022/04/11 11:44:47;;;;;;;3.87;3.40;;;;;;;13.78;34.19;100865.41;5539458;32;35356;-87
2022/04/11 11:47:51;;;;;;;4.05;3.28;;;;;;;13.55;33.75;100858.69;5519809;32;33567;-89
2022/04/11 11:50:57;;;;;;;3.47;2.90;;;;;;;13.87;33.51;100866.72;5533570;32;33196;-85
2022/04/11 11:54:00;;;;;;;5.30;2.97;;;;;;;15.30;30.39;100861.13;5546991;32;34065;-84
2022/04/11 11:57:27;;;;;;;4.30;3.50;;;;;;;15.69;29.51;100860.53;5544836;32;33870;-82
2022/04/11 12:00:34;;;;;;;3.47;3.28;;;;;;;15.48;30.14;100858.22;5518281;32;32176;-83
2022/04/11 12:04:23;;;;;;;5.82;3.40;;;;;;;15.29;29.85;100862.06;5532750;32;34116;-82
2022/04/11 12:07:01;;;;;;;3.80;3.35;;;;;;;14.79;30.33;100851.69;5518954;32;33012;-84
2022/04/11 12:10:08;;;;;;;3.53;3.15;;;;;;;14.13;31.02;100869.75;5533328;32;33723;-84
2022/04/11 12:13:23;;;;;;;3.47;3.17;;;;;;;14.06;31.14;100860.34;5532904;32;34716;-85
2022/04/11 12:16:29;;;;;;;6.03;3.20;;;;;;;13.44;31.56;100865.44;5530505;32;32319;-84
2022/04/11 12:19:37;;;;;;;3.78;2.95;;;;;;;13.23;31.15;100862.12;5532654;32;33259;-84
2022/04/11 12:23:01;;;;;;;5.70;2.80;;;;;;;12.35;33.18;100864.81;5541201;32;33881;-85
2022/04/11 12:26:03;;;;;;;3.33;3.03;;;;;;;12.52;32.86;100862.16;5517050;32;33854;-84
2022/04/11 12:29:11;;;;;;;3.83;3.22;;;;;;;12.69;31.90;100846.28;5532378;32;33948;-83
2022/04/11 12:32:15;;;;;;;3.87;3.47;;;;;;;13.34;32.08;100845.56;5520998;32;33606;-84
2022/04/11 12:35:19;;;;;;;4.53;3.58;;;;;;;12.71;32.20;100847.09;5530284;32;32405;-85
2022/04/11 12:38:47;;;;;;;4.50;3.30;;;;;;;13.05;31.78;100846.19;5544494;32;33898;-85
2022/04/11 12:41:51;;;;;;;3.40;3.08;;;;;;;13.77;30.52;100839.72;5554269;32;33478;-84
2022/04/11 12:45:03;;;;;;;3.30;3.00;;;;;;;13.27;31.17;100838.88;5538929;32;34020;-83
2022/04/11 12:48:08;;;;;;;4.50;3.37;;;;;;;13.48;30.91;100831.53;5535203;32;34064;-83
2022/04/11 12:51:11;;;;;;;3.67;3.37;;;;;;;14.00;31.27;100825.09;5533641;32;33702;-83
2022/04/11 12:54:14;;;;;;;3.53;3.22;;;;;;;13.00;31.54;100832.25;5519514;32;33399;-84
2022/04/11 12:57:24;;;;;;;3.55;2.72;;;;;;;13.26;30.78;100819.34;5519309;32;32305;-83
2022/04/11 13:00:29;;;;;;;2.80;2.60;;;;;;;13.60;29.45;100822.88;5532592;32;34013;-84
2022/04/11 13:03:31;;;;;;;3.78;2.50;;;;;;;13.87;29.85;100818.72;5533305;32;33780;-83
2022/04/11 13:06:34;;;;;;;2.67;2.47;;;;;;;14.08;28.61;100815.78;5533224;32;34273;-84
2022/04/11 13:09:38;;;;;;;3.95;2.83;;;;;;;13.82;29.58;100818.97;5534381;32;34445;-83
2022/04/11 13:12:41;;;;;;;4.62;2.67;;;;;;;13.08;30.69;100815.88;5536206;32;33781;-84
2022/04/11 13:19:16;;;;;;;5.03;3.05;;;;;;;13.66;29.90;100815.44;5479922;32;33783;-84
2022/04/11 13:22:20;;;;;;;3.00;2.80;;;;;;;13.84;29.66;100795.75;5533749;32;33781;-84
2022/04/11 13:25:23;;;;;;;7.53;3.58;;;;;;;13.66;30.77;100802.13;5519272;32;33247;-84
2022/04/11 13:28:45;;;;;;;5.87;3.45;;;;;;;13.34;31.73;100816.25;5546249;32;33957;-84
2022/04/11 13:31:48;;;;;;;3.35;3.05;;;;;;;12.58;32.09;100806.91;5538673;32;33925;-84
2022/04/11 13:34:51;;;;;;;5.53;3.30;;;;;;;13.03;31.31;100809.94;5533803;32;34302;-84
2022/04/11 13:37:54;;;;;;;3.00;2.80;;;;;;;12.70;30.86;100810.72;5521641;32;33420;-83
2022/04/11 13:40:57;;;;;;;3.25;3.00;;;;;;;13.43;30.17;100797.09;5544057;32;34121;-84
2022/04/11 13:44:01;;;;;;;2.80;2.60;;;;;;;13.25;29.70;100798.09;5555050;32;33762;-84
2022/04/11 13:47:04;;;;;;;3.15;2.80;;;;;;;12.76;30.96;100797.09;5559740;32;35373;-84
2022/04/11 13:50:08;;;;;;;3.20;2.90;;;;;;;12.59;31.53;100790.88;5553939;32;35804;-83
2022/04/11 13:53:11;;;;;;;3.95;2.53;;;;;;;13.30;30.70;100788.94;5554620;32;33741;-85
2022/04/11 13:56:14;;;;;;;3.10;2.80;;;;;;;13.64;30.10;100774.69;5554520;32;34871;-85
2022/04/11 13:59:25;;;;;;;4.40;2.90;;;;;;;13.90;28.92;100794.56;5554753;32;34525;-85
2022/04/11 14:02:28;;;;;;;;;;;;;;;13.39;30.11;100787.56;5540817;32;33341;-86
2022/04/11 14:05:31;;;;;;;2.90;2.70;;;;;;;13.33;30.25;100787.91;5555492;32;34043;-86
2022/04/11 14:08:34;;;;;;;3.37;2.87;;;;;;;13.30;29.81;100785.41;5549782;32;35007;-85
2022/04/11 14:11:38;;;;;;;6.55;2.72;;;;;;;13.30;29.75;100778.28;5539616;32;34445;-85
2022/04/11 14:14:41;;;;;;;3.30;2.65;;;;;;;12.87;30.20;100783.25;5534497;32;34412;-83
2022/04/11 14:17:44;;;;;;;4.25;2.47;;;;;;;13.15;30.67;100787.97;5518880;32;31911;-85
2022/04/11 14:20:48;;;;;;;2.30;2.10;;;;;;;12.79;29.28;100779.16;5534893;32;34654;-85
2022/04/11 14:23:51;;;;;;;3.92;2.10;;;;;;;12.25;29.75;100785.47;5535513;32;34010;-86
2022/04/11 14:26:54;;;;;;;2.45;2.00;;;;;;;11.78;30.22;100781.53;5537783;32;34318;-85
2022/04/11 14:29:56;;;;;;;2.12;1.90;;;;;;;11.40;30.77;100781.53;5541522;32;34137;-84
2022/04/11 14:32:59;;;;;;;2.65;2.12;;;;;;;11.16;31.50;100777.31;5534461;32;34408;-85
2022/04/11 14:36:03;;;;;;;4.20;2.50;;;;;;;11.09;31.92;100781.19;5521527;32;33249;-84
2022/04/11 14:39:05;;;;;;;3.35;2.30;;;;;;;11.37;31.41;100773.72;5530734;32;32881;-85
2022/04/11 14:42:16;;;;;;;3.40;2.42;;;;;;;11.65;32.41;100770.62;5520152;32;33235;-85
2022/04/11 14:45:20;;;;;;;3.08;2.42;;;;;;;11.63;32.76;100774.28;5520348;32;33229;-85
2022/04/11 14:48:23;;;;;;;2.95;2.42;;;;;;;11.78;32.42;100767.38;5518231;32;31876;-85
2022/04/11 14:51:27;;;;;;;3.15;2.58;;;;;;;11.43;32.94;100776.09;5539878;32;33754;-85
2022/04/11 14:54:30;;;;;;;4.68;2.58;;;;;;;11.12;32.42;100772.22;5545147;32;35205;-85
2022/04/11 14:57:32;;;;;;;3.15;2.30;;;;;;;11.06;32.23;100765.38;5522235;32;32622;-85
2022/04/11 15:00:35;;;;;;;2.30;1.90;;;;;;;11.01;33.25;100765.59;5534792;32;34267;-85
2022/04/11 15:03:40;;;;;;;2.53;2.08;;;;;;;11.13;31.95;100768.63;5521379;32;32882;-86
2022/04/11 15:06:43;;;;;;;2.22;2.03;;;;;;;11.12;32.08;100764.25;5522224;32;32404;-86
2022/04/11 15:09:45;;;;;;;2.40;2.20;;;;;;;10.98;32.38;100765.75;5521328;32;33488;-86
2022/04/11 15:12:49;;;;;;;2.80;2.10;;;;;;;10.99;33.46;100761.28;5535628;32;34148;-86
2022/04/11 15:15:52;;;;;;;2.22;2.03;;;;;;;10.83;32.10;100761.09;5524540;32;33712;-87
2022/04/11 15:18:55;;;;;;;3.05;2.20;;;;;;;11.16;31.04;100758.72;5531166;32;33588;-85
2022/04/11 15:21:59;;;;;;;2.42;1.67;;;;;;;11.08;31.40;100760.00;5531607;32;32564;-85
2022/04/11 15:25:03;;;;;;;1.80;1.70;;;;;;;11.09;31.11;100759.94;5531456;32;33587;-86
2022/04/11 15:28:06;;;;;;;2.12;1.98;;;;;;;11.21;31.15;100753.19;5521654;32;32780;-86
2022/04/11 15:31:13;;;;;;;1.50;1.40;;;;;;;11.38;30.03;100751.53;5519830;32;32529;-86
2022/04/11 15:34:15;;;;;;;2.33;1.67;;;;;;;11.59;29.82;100744.34;5534610;32;33820;-86
2022/04/11 15:37:32;;;;;;;2.20;1.65;;;;;;;11.84;28.92;100757.31;5534138;32;34043;-86
2022/04/11 15:40:36;;;;;;;3.00;2.70;;;;;;;12.01;29.61;100755.59;5519044;32;32368;-85
2022/04/11 15:43:40;;;;;;;3.35;2.58;;;;;;;11.71;30.47;100748.19;5534705;32;34879;-86
